Eurocargo Venezia — IBKS — position and weather

sailwx.info

Track history (hours):
 
Tides and Currents Weather Stations Pressure Air Temp Water Temp Dewpoint Dewpoint Depression Visibility Wind Speed Wind Dir Waves Ship Positions

Eurocargo Venezia

Last reported at 2015-Jul-28 00:33 UTC. Time now 2015-Jul-28 01:31 UTC.
Position N 43°43' E 009°42'.

Length 200 m; draft 7.2 m.

Type: Ship (hazmat cat A). MMSI: 247297200.

Date/timePositionNaut miles runAvg speedWind from/ knotsBaromVisibWave heightAir tempDewpointWater temp
2015-Jul-28 00:33N 43°43' E 009°42'1717.4
2015-Jul-27 23:33N 43°56' E 009°27'1818.2
2015-Jul-27 22:33N 44°10' E 009°10'1616.4
2015-Jul-27 21:34N 44°23' E 008°57'3 2.4
2015-Jul-27 20:32N 44°24' E 008°53'0 0.0
2015-Jul-27 19:32N 44°24' E 008°53'0 0.0
2015-Jul-27 18:32N 44°24' E 008°53'0 0.0
2015-Jul-27 17:32N 44°24' E 008°53'0 0.0
2015-Jul-27 16:32N 44°24' E 008°53'0 0.0
2015-Jul-27 15:32N 44°24' E 008°53'0 0.0
2015-Jul-27 14:32N 44°24' E 008°53'0 0.0
2015-Jul-27 13:29N 44°24' E 008°53'0 0.0
2015-Jul-27 12:32N 44°24' E 008°53'0 0.0
2015-Jul-27 11:29N 44°24' E 008°53'0 0.0
2015-Jul-27 10:33N 44°24' E 008°53'4 3.6
2015-Jul-27 09:33N 44°23' E 008°58'1515.6
2015-Jul-27 08:33N 44°08' E 009°06'22917.6
2015-Jul-26 19:33N 40°32' E 010°45'17118.0
2015-Jul-26 10:05N 37°51' E 012°00'1017.7
2015-Jul-26 09:31N 37°45' E 012°11'1817.9
2015-Jul-26 08:32N 37°33' E 012°27'2118.1
2015-Jul-26 07:20N 37°17' E 012°46'1418.0
2015-Jul-26 06:33N 37°08' E 012°59'1817.7
2015-Jul-26 05:33N 36°56' E 013°15'1817.8
2015-Jul-26 04:33N 36°43' E 013°30'1817.5
2015-Jul-26 03:33N 36°32' E 013°47'1817.7
2015-Jul-26 02:34N 36°20' E 014°03'1818.1
2015-Jul-26 01:33N 36°08' E 014°20'1717.0
2015-Jul-26 00:33N 35°55' E 014°33'3 2.5
2015-Jul-25 23:31N 35°53' E 014°31'0 0.0
2015-Jul-25 22:31N 35°53' E 014°31'0 0.0
2015-Jul-25 21:28N 35°53' E 014°31'0 0.0
2015-Jul-25 19:19N 35°53' E 014°31'0 0.0
2015-Jul-25 18:31N 35°53' E 014°31'0 0.0
2015-Jul-25 17:31N 35°53' E 014°31'1111.2
2015-Jul-25 16:33N 36°02' E 014°39'1919.1
2015-Jul-25 15:33N 36°18' E 014°52'2219.0
2015-Jul-25 14:25N 36°35' E 015°07'1618.3
2015-Jul-25 13:33N 36°49' E 015°18'3616.6
2015-Jul-25 11:22N 37°24' E 015°11'11 0.5
2015-Jul-24 12:32N 37°35' E 015°15'1818.3
2015-Jul-24 11:33N 37°52' E 015°24'1918.7
2015-Jul-24 10:33N 38°08' E 015°35'1514.5
2015-Jul-24 09:32N 38°23' E 015°38'1918.9
2015-Jul-24 08:33N 38°40' E 015°28'10118.8
2015-Jul-24 03:12N 40°03' E 014°15'1318.9
2015-Jul-24 02:33N 40°13' E 014°05'1818.7
2015-Jul-24 01:33N 40°29' E 013°52'1918.6
2015-Jul-24 00:33N 40°44' E 013°38'1818.2
2015-Jul-23 23:34N 40°57' E 013°21'1918.3
2015-Jul-23 22:31N 41°07' E 013°00'11418.4
2015-Jul-23 16:17N 42°22' E 011°04'1318.2
2015-Jul-23 15:33N 42°31' E 010°50'1919.1
2015-Jul-23 14:33N 42°46' E 010°35'1918.9
2015-Jul-23 13:33N 43°03' E 010°24'1918.8
2015-Jul-23 12:34N 43°21' E 010°15'1211.9
2015-Jul-23 11:34N 43°33' E 010°17'2 2.3
2015-Jul-23 10:34N 43°35' E 010°18'0 0.0
2015-Jul-23 09:34N 43°35' E 010°18'0 0.0
2015-Jul-23 08:33N 43°35' E 010°18'0 0.0
2015-Jul-23 07:33N 43°35' E 010°18'0 0.0
2015-Jul-23 06:34N 43°35' E 010°18'0 0.0
2015-Jul-23 05:33N 43°35' E 010°18'0 0.0
2015-Jul-23 04:34N 43°35' E 010°18'1 1.5
2015-Jul-23 03:34N 43°33' E 010°18'9 9.2
2015-Jul-23 02:34N 43°30' E 010°06'1717.5
2015-Jul-23 01:33N 43°40' E 009°46'1919.0
2015-Jul-23 00:33N 43°55' E 009°29'1918.9
2015-Jul-22 23:33N 44°08' E 009°11'1817.5
2015-Jul-22 22:33N 44°22' E 008°57'3 3.1
2015-Jul-22 21:32N 44°24' E 008°53'0 0.0
2015-Jul-22 20:32N 44°24' E 008°53'0 0.0
2015-Jul-22 19:29N 44°24' E 008°53'0 0.0
2015-Jul-22 18:32N 44°24' E 008°53'0 0.0
2015-Jul-22 17:32N 44°24' E 008°53'0 0.0
2015-Jul-22 16:32N 44°24' E 008°53'0 0.0
2015-Jul-22 15:29N 44°24' E 008°53'0 0.0
2015-Jul-22 14:32N 44°24' E 008°53'0 0.0
2015-Jul-22 13:32N 44°24' E 008°53'0 0.2
2015-Jul-22 12:33N 44°24' E 008°53'9 9.0
2015-Jul-22 11:33N 44°18' E 009°02'2019.6
2015-Jul-22 10:33N 44°03' E 009°20'1919.4
2015-Jul-22 09:33N 43°48' E 009°37'1919.3
2015-Jul-22 08:33N 43°34' E 009°55'1919.1
2015-Jul-22 07:33N 43°18' E 010°10'1919.4
2015-Jul-22 06:33N 43°01' E 010°24'1918.7
2015-Jul-22 05:33N 42°45' E 010°37'1919.1
2015-Jul-22 04:33N 42°29' E 010°51'2619.3
2015-Jul-22 03:14N 42°15' E 011°20'1319.8
2015-Jul-22 02:33N 42°05' E 011°32'2119.8
2015-Jul-22 01:31N 41°51' E 011°52'3719.1
2015-Jul-21 23:33N 41°25' E 012°28'2718.9
2015-Jul-21 22:07N 41°09' E 012°58'1119.3
2015-Jul-21 21:33N 41°03' E 013°09'1919.0
2015-Jul-21 20:34N 40°52' E 013°30'1919.0
2015-Jul-21 19:33N 40°36' E 013°44'1918.9
2015-Jul-21 18:33N 40°21' E 013°59'2018.9
2015-Jul-21 17:29N 40°05' E 014°14'1818.8
2015-Jul-21 16:33N 39°50' E 014°27'2118.7
2015-Jul-21 15:26N 39°33' E 014°43'1818.9
2015-Jul-21 14:29N 39°18' E 014°56'6219.1
2015-Jul-21 11:15N 38°25' E 015°38'1114.2
2015-Jul-21 10:27N 38°14' E 015°37'51 5.4
2015-Jul-21 01:09N 37°30' E 015°06'0 0.0
2015-Jul-20 23:33N 37°30' E 015°06'1812.3
2015-Jul-20 22:05N 37°15' E 015°19'1018.5
2015-Jul-20 21:33N 37°06' E 015°23'2217.1
2015-Jul-20 20:16N 36°44' E 015°16'1318.9
2015-Jul-20 19:33N 36°33' E 015°08'1918.9
2015-Jul-20 18:33N 36°18' E 014°54'1818.3
2015-Jul-20 17:33N 36°03' E 014°40'1312.2
2015-Jul-20 16:31N 35°53' E 014°31'0 0.0
2015-Jul-20 15:31N 35°53' E 014°31'0 0.0
2015-Jul-20 14:31N 35°53' E 014°31'0 0.0
2015-Jul-20 13:31N 35°53' E 014°31'0 0.0
2015-Jul-20 12:31N 35°53' E 014°31'0 0.0
2015-Jul-20 11:31N 35°53' E 014°31'0 0.0
2015-Jul-20 10:28N 35°53' E 014°31'0 0.0
2015-Jul-20 09:28N 35°53' E 014°31'0 0.0
2015-Jul-20 08:31N 35°53' E 014°31'0 0.0
2015-Jul-20 07:28N 35°53' E 014°31'0 0.0
2015-Jul-20 06:33N 35°53' E 014°31'7 7.3
2015-Jul-20 05:33N 36°00' E 014°29'1817.6
2015-Jul-20 04:33N 36°12' E 014°13'1817.8
2015-Jul-20 03:33N 36°24' E 013°56'1818.3
2015-Jul-20 02:33N 36°37' E 013°40'1818.0
2015-Jul-20 01:33N 36°49' E 013°23'1817.9
2015-Jul-20 00:33N 37°01' E 013°07'3817.6
2015-Jul-19 22:23N 37°27' E 012°32'1517.5
2015-Jul-19 21:33N 37°38' E 012°19'1717.5
2015-Jul-19 20:33N 37°49' E 012°02'1717.3
2015-Jul-19 19:33N 38°04' E 011°52'1817.7
2015-Jul-19 18:33N 38°21' E 011°45'1817.5
2015-Jul-19 17:33N 38°37' E 011°37'1817.6
2015-Jul-19 16:33N 38°54' E 011°29'1717.1
2015-Jul-19 15:33N 39°10' E 011°22'1717.3
2015-Jul-19 14:33N 39°26' E 011°15'3417.0
2015-Jul-19 12:34N 39°60' E 011°06'1717.3
2015-Jul-19 11:33N 40°17' E 011°06'1616.0
2015-Jul-19 10:33N 40°29' E 010°53'1717.0
2015-Jul-19 09:33N 40°43' E 010°40'3517.5
2015-Jul-19 07:33N 41°16' E 010°25'1717.3
2015-Jul-19 06:33N 41°32' E 010°18'1816.8
2015-Jul-19 05:30N 41°49' E 010°09'1616.9
2015-Jul-19 04:33N 42°04' E 010°02'6817.0
2015-Jul-19 00:34N 43°09' E 009°37'1716.9
2015-Jul-18 23:33N 43°25' E 009°29'1717.3
2015-Jul-18 22:34N 43°42' E 009°21'1717.1
2015-Jul-18 21:34N 43°57' E 009°11'1717.2
2015-Jul-18 20:33N 44°13' E 009°02'1312.6
2015-Jul-18 19:33N 44°24' E 008°54'0 0.3
2015-Jul-18 18:31N 44°24' E 008°53'0 0.0
2015-Jul-18 17:30N 44°24' E 008°53'0 0.0
2015-Jul-18 16:34N 44°24' E 008°53'0 0.0
2015-Jul-18 15:33N 44°24' E 008°53'0 0.0
2015-Jul-18 14:33N 44°24' E 008°53'0 0.0
2015-Jul-18 13:28N 44°24' E 008°53'0 0.0
2015-Jul-18 12:33N 44°24' E 008°53'1 0.8
2015-Jul-18 11:33N 44°24' E 008°54'1211.7
2015-Jul-18 10:34N 44°15' E 009°05'1919.3
2015-Jul-18 09:34N 44°00' E 009°22'1919.2
2015-Jul-18 08:34N 43°46' E 009°40'1919.0
2015-Jul-18 07:34N 43°32' E 009°58'1919.0
2015-Jul-18 06:34N 43°16' E 010°12'1919.1
2015-Jul-18 05:34N 42°59' E 010°25'1919.1
2015-Jul-18 04:34N 42°43' E 010°39'2019.7
2015-Jul-18 03:32N 42°27' E 010°54'2619.5
2015-Jul-18 02:11N 42°12' E 011°24'1719.6
2015-Jul-18 01:19N 41°60' E 011°40'  
Track history (hours):
 
Tides and Currents Weather Stations Pressure Air Temp Water Temp Dewpoint Dewpoint Depression Visibility Wind Speed Wind Dir Waves Ship Positions

Eurocargo Venezia

Last reported at 2015-Jul-28 00:33 UTC. Time now 2015-Jul-28 01:31 UTC.
Position N 43°43' E 009°42'.

Length 200 m; draft 7.2 m.

Type: Ship (hazmat cat A). MMSI: 247297200.

Date/timePositionNaut miles runAvg speedWind from/ knotsBaromVisibWave heightAir tempDewpointWater temp
2015-Jul-28 00:33N 43°43' E 009°42'1717.4
2015-Jul-27 23:33N 43°56' E 009°27'1818.2
2015-Jul-27 22:33N 44°10' E 009°10'1616.4
2015-Jul-27 21:34N 44°23' E 008°57'3 2.4
2015-Jul-27 20:32N 44°24' E 008°53'0 0.0
2015-Jul-27 19:32N 44°24' E 008°53'0 0.0
2015-Jul-27 18:32N 44°24' E 008°53'0 0.0
2015-Jul-27 17:32N 44°24' E 008°53'0 0.0
2015-Jul-27 16:32N 44°24' E 008°53'0 0.0
2015-Jul-27 15:32N 44°24' E 008°53'0 0.0
2015-Jul-27 14:32N 44°24' E 008°53'0 0.0
2015-Jul-27 13:29N 44°24' E 008°53'0 0.0
2015-Jul-27 12:32N 44°24' E 008°53'0 0.0
2015-Jul-27 11:29N 44°24' E 008°53'0 0.0
2015-Jul-27 10:33N 44°24' E 008°53'4 3.6
2015-Jul-27 09:33N 44°23' E 008°58'1515.6
2015-Jul-27 08:33N 44°08' E 009°06'22917.6
2015-Jul-26 19:33N 40°32' E 010°45'17118.0
2015-Jul-26 10:05N 37°51' E 012°00'1017.7
2015-Jul-26 09:31N 37°45' E 012°11'1817.9
2015-Jul-26 08:32N 37°33' E 012°27'2118.1
2015-Jul-26 07:20N 37°17' E 012°46'1418.0
2015-Jul-26 06:33N 37°08' E 012°59'1817.7
2015-Jul-26 05:33N 36°56' E 013°15'1817.8
2015-Jul-26 04:33N 36°43' E 013°30'1817.5
2015-Jul-26 03:33N 36°32' E 013°47'1817.7
2015-Jul-26 02:34N 36°20' E 014°03'1818.1
2015-Jul-26 01:33N 36°08' E 014°20'1717.0
2015-Jul-26 00:33N 35°55' E 014°33'3 2.5
2015-Jul-25 23:31N 35°53' E 014°31'0 0.0
2015-Jul-25 22:31N 35°53' E 014°31'0 0.0
2015-Jul-25 21:28N 35°53' E 014°31'0 0.0
2015-Jul-25 19:19N 35°53' E 014°31'0 0.0
2015-Jul-25 18:31N 35°53' E 014°31'0 0.0
2015-Jul-25 17:31N 35°53' E 014°31'1111.2
2015-Jul-25 16:33N 36°02' E 014°39'1919.1
2015-Jul-25 15:33N 36°18' E 014°52'2219.0
2015-Jul-25 14:25N 36°35' E 015°07'1618.3
2015-Jul-25 13:33N 36°49' E 015°18'3616.6
2015-Jul-25 11:22N 37°24' E 015°11'11 0.5
2015-Jul-24 12:32N 37°35' E 015°15'1818.3
2015-Jul-24 11:33N 37°52' E 015°24'1918.7
2015-Jul-24 10:33N 38°08' E 015°35'1514.5
2015-Jul-24 09:32N 38°23' E 015°38'1918.9
2015-Jul-24 08:33N 38°40' E 015°28'10118.8
2015-Jul-24 03:12N 40°03' E 014°15'1318.9
2015-Jul-24 02:33N 40°13' E 014°05'1818.7
2015-Jul-24 01:33N 40°29' E 013°52'1918.6
2015-Jul-24 00:33N 40°44' E 013°38'1818.2
2015-Jul-23 23:34N 40°57' E 013°21'1918.3
2015-Jul-23 22:31N 41°07' E 013°00'11418.4
2015-Jul-23 16:17N 42°22' E 011°04'1318.2
2015-Jul-23 15:33N 42°31' E 010°50'1919.1
2015-Jul-23 14:33N 42°46' E 010°35'1918.9
2015-Jul-23 13:33N 43°03' E 010°24'1918.8
2015-Jul-23 12:34N 43°21' E 010°15'1211.9
2015-Jul-23 11:34N 43°33' E 010°17'2 2.3
2015-Jul-23 10:34N 43°35' E 010°18'0 0.0
2015-Jul-23 09:34N 43°35' E 010°18'0 0.0
2015-Jul-23 08:33N 43°35' E 010°18'0 0.0
2015-Jul-23 07:33N 43°35' E 010°18'0 0.0
2015-Jul-23 06:34N 43°35' E 010°18'0 0.0
2015-Jul-23 05:33N 43°35' E 010°18'0 0.0
2015-Jul-23 04:34N 43°35' E 010°18'1 1.5
2015-Jul-23 03:34N 43°33' E 010°18'9 9.2
2015-Jul-23 02:34N 43°30' E 010°06'1717.5
2015-Jul-23 01:33N 43°40' E 009°46'1919.0
2015-Jul-23 00:33N 43°55' E 009°29'1918.9
2015-Jul-22 23:33N 44°08' E 009°11'1817.5
2015-Jul-22 22:33N 44°22' E 008°57'3 3.1
2015-Jul-22 21:32N 44°24' E 008°53'0 0.0
2015-Jul-22 20:32N 44°24' E 008°53'0 0.0
2015-Jul-22 19:29N 44°24' E 008°53'0 0.0
2015-Jul-22 18:32N 44°24' E 008°53'0 0.0
2015-Jul-22 17:32N 44°24' E 008°53'0 0.0
2015-Jul-22 16:32N 44°24' E 008°53'0 0.0
2015-Jul-22 15:29N 44°24' E 008°53'0 0.0
2015-Jul-22 14:32N 44°24' E 008°53'0 0.0
2015-Jul-22 13:32N 44°24' E 008°53'0 0.2
2015-Jul-22 12:33N 44°24' E 008°53'9 9.0
2015-Jul-22 11:33N 44°18' E 009°02'2019.6
2015-Jul-22 10:33N 44°03' E 009°20'1919.4
2015-Jul-22 09:33N 43°48' E 009°37'1919.3
2015-Jul-22 08:33N 43°34' E 009°55'1919.1
2015-Jul-22 07:33N 43°18' E 010°10'1919.4
2015-Jul-22 06:33N 43°01' E 010°24'1918.7
2015-Jul-22 05:33N 42°45' E 010°37'1919.1
2015-Jul-22 04:33N 42°29' E 010°51'2619.3
2015-Jul-22 03:14N 42°15' E 011°20'1319.8
2015-Jul-22 02:33N 42°05' E 011°32'2119.8
2015-Jul-22 01:31N 41°51' E 011°52'3719.1
2015-Jul-21 23:33N 41°25' E 012°28'2718.9
2015-Jul-21 22:07N 41°09' E 012°58'1119.3
2015-Jul-21 21:33N 41°03' E 013°09'1919.0
2015-Jul-21 20:34N 40°52' E 013°30'1919.0
2015-Jul-21 19:33N 40°36' E 013°44'1918.9
2015-Jul-21 18:33N 40°21' E 013°59'2018.9
2015-Jul-21 17:29N 40°05' E 014°14'1818.8
2015-Jul-21 16:33N 39°50' E 014°27'2118.7
2015-Jul-21 15:26N 39°33' E 014°43'1818.9
2015-Jul-21 14:29N 39°18' E 014°56'6219.1
2015-Jul-21 11:15N 38°25' E 015°38'1114.2
2015-Jul-21 10:27N 38°14' E 015°37'51 5.4
2015-Jul-21 01:09N 37°30' E 015°06'0 0.0
2015-Jul-20 23:33N 37°30' E 015°06'1812.3
2015-Jul-20 22:05N 37°15' E 015°19'1018.5
2015-Jul-20 21:33N 37°06' E 015°23'2217.1
2015-Jul-20 20:16N 36°44' E 015°16'1318.9
2015-Jul-20 19:33N 36°33' E 015°08'1918.9
2015-Jul-20 18:33N 36°18' E 014°54'1818.3
2015-Jul-20 17:33N 36°03' E 014°40'1312.2
2015-Jul-20 16:31N 35°53' E 014°31'0 0.0
2015-Jul-20 15:31N 35°53' E 014°31'0 0.0
2015-Jul-20 14:31N 35°53' E 014°31'0 0.0
2015-Jul-20 13:31N 35°53' E 014°31'0 0.0
2015-Jul-20 12:31N 35°53' E 014°31'0 0.0
2015-Jul-20 11:31N 35°53' E 014°31'0 0.0
2015-Jul-20 10:28N 35°53' E 014°31'0 0.0
2015-Jul-20 09:28N 35°53' E 014°31'0 0.0
2015-Jul-20 08:31N 35°53' E 014°31'0 0.0
2015-Jul-20 07:28N 35°53' E 014°31'0 0.0
2015-Jul-20 06:33N 35°53' E 014°31'7 7.3
2015-Jul-20 05:33N 36°00' E 014°29'1817.6
2015-Jul-20 04:33N 36°12' E 014°13'1817.8
2015-Jul-20 03:33N 36°24' E 013°56'1818.3
2015-Jul-20 02:33N 36°37' E 013°40'1818.0
2015-Jul-20 01:33N 36°49' E 013°23'1817.9
2015-Jul-20 00:33N 37°01' E 013°07'3817.6
2015-Jul-19 22:23N 37°27' E 012°32'1517.5
2015-Jul-19 21:33N 37°38' E 012°19'1717.5
2015-Jul-19 20:33N 37°49' E 012°02'1717.3
2015-Jul-19 19:33N 38°04' E 011°52'1817.7
2015-Jul-19 18:33N 38°21' E 011°45'1817.5
2015-Jul-19 17:33N 38°37' E 011°37'1817.6
2015-Jul-19 16:33N 38°54' E 011°29'1717.1
2015-Jul-19 15:33N 39°10' E 011°22'1717.3
2015-Jul-19 14:33N 39°26' E 011°15'3417.0
2015-Jul-19 12:34N 39°60' E 011°06'1717.3
2015-Jul-19 11:33N 40°17' E 011°06'1616.0
2015-Jul-19 10:33N 40°29' E 010°53'1717.0
2015-Jul-19 09:33N 40°43' E 010°40'3517.5
2015-Jul-19 07:33N 41°16' E 010°25'1717.3
2015-Jul-19 06:33N 41°32' E 010°18'1816.8
2015-Jul-19 05:30N 41°49' E 010°09'1616.9
2015-Jul-19 04:33N 42°04' E 010°02'6817.0
2015-Jul-19 00:34N 43°09' E 009°37'1716.9
2015-Jul-18 23:33N 43°25' E 009°29'1717.3
2015-Jul-18 22:34N 43°42' E 009°21'1717.1
2015-Jul-18 21:34N 43°57' E 009°11'1717.2
2015-Jul-18 20:33N 44°13' E 009°02'1312.6
2015-Jul-18 19:33N 44°24' E 008°54'0 0.3
2015-Jul-18 18:31N 44°24' E 008°53'0 0.0
2015-Jul-18 17:30N 44°24' E 008°53'0 0.0
2015-Jul-18 16:34N 44°24' E 008°53'0 0.0
2015-Jul-18 15:33N 44°24' E 008°53'0 0.0
2015-Jul-18 14:33N 44°24' E 008°53'0 0.0
2015-Jul-18 13:28N 44°24' E 008°53'0 0.0
2015-Jul-18 12:33N 44°24' E 008°53'1 0.8
2015-Jul-18 11:33N 44°24' E 008°54'1211.7
2015-Jul-18 10:34N 44°15' E 009°05'1919.3
2015-Jul-18 09:34N 44°00' E 009°22'1919.2
2015-Jul-18 08:34N 43°46' E 009°40'1919.0
2015-Jul-18 07:34N 43°32' E 009°58'1919.0
2015-Jul-18 06:34N 43°16' E 010°12'1919.1
2015-Jul-18 05:34N 42°59' E 010°25'1919.1
2015-Jul-18 04:34N 42°43' E 010°39'2019.7
2015-Jul-18 03:32N 42°27' E 010°54'2619.5
2015-Jul-18 02:11N 42°12' E 011°24'1719.6
2015-Jul-18 01:19N 41°60' E 011°40'  

Dump ship's entire track history